createdAt,value
2022-08-03T00:02:18.269Z,2.70
2022-08-03T00:04:46.598Z,3.10
2022-08-03T00:07:14.472Z,3.33
2022-08-03T00:09:43.529Z,2.90
2022-08-03T00:12:11.293Z,2.70
2022-08-03T00:14:39.063Z,2.73
2022-08-03T00:17:06.727Z,2.40
2022-08-03T00:19:34.422Z,2.90
2022-08-03T00:22:02.101Z,3.67
2022-08-03T00:24:31.090Z,2.97
2022-08-03T00:27:00.996Z,2.70
2022-08-03T00:29:28.949Z,2.53
2022-08-03T00:32:00.257Z,2.70
2022-08-03T00:34:36.559Z,2.40
2022-08-03T00:37:16.558Z,2.37
2022-08-03T00:39:46.193Z,3.07
2022-08-03T00:42:15.912Z,3.00
2022-08-03T00:44:44.835Z,2.87
2022-08-03T00:47:13.458Z,2.60
2022-08-03T00:49:41.675Z,2.63
2022-08-03T00:52:10.584Z,3.30
2022-08-03T00:54:39.178Z,3.30
2022-08-03T00:57:07.555Z,3.37
2022-08-03T00:59:38.181Z,2.80
2022-08-03T01:02:06.409Z,3.70
2022-08-03T01:04:34.097Z,3.00
2022-08-03T01:07:11.054Z,2.87
2022-08-03T01:09:46.360Z,2.67
2022-08-03T01:12:23.378Z,2.83
2022-08-03T01:14:59.570Z,3.63
2022-08-03T01:17:35.604Z,3.43
2022-08-03T01:20:07.956Z,2.90
2022-08-03T01:22:52.773Z,3.20
2022-08-03T01:25:32.614Z,2.70
2022-08-03T01:28:23.404Z,3.00
2022-08-03T01:30:57.436Z,2.60
2022-08-03T01:33:32.168Z,2.30
2022-08-03T01:36:03.098Z,3.03
2022-08-03T01:38:34.315Z,2.50
2022-08-03T01:41:05.836Z,2.70
2022-08-03T01:44:27.357Z,2.73
2022-08-03T01:46:25.230Z,2.30
2022-08-03T01:48:54.075Z,3.30
2022-08-03T01:51:23.299Z,2.83
2022-08-03T01:53:54.733Z,2.97
2022-08-03T01:56:25.574Z,2.70
2022-08-03T01:58:55.405Z,3.07
2022-08-03T02:01:26.310Z,2.60
2022-08-03T02:04:15.703Z,2.80
2022-08-03T02:07:00.330Z,2.73
2022-08-03T02:09:32.415Z,2.87
2022-08-03T02:12:01.115Z,2.77
2022-08-03T02:14:29.704Z,2.67
2022-08-03T02:16:59.452Z,3.17
2022-08-03T02:19:31.403Z,2.90
2022-08-03T02:22:04.347Z,2.83
2022-08-03T02:24:32.755Z,2.37
2022-08-03T02:27:02.104Z,2.60
2022-08-03T02:29:39.368Z,2.60
2022-08-03T02:32:11.433Z,3.40
2022-08-03T02:34:41.747Z,3.23
2022-08-03T02:37:11.792Z,3.50
2022-08-03T02:39:41.877Z,2.83
2022-08-03T02:42:12.231Z,3.20
2022-08-03T02:44:47.551Z,2.77
2022-08-03T02:47:17.092Z,2.97
2022-08-03T02:49:50.439Z,2.20
2022-08-03T02:52:20.853Z,2.57
2022-08-03T02:54:51.961Z,3.10
2022-08-03T02:57:22.432Z,2.57
2022-08-03T02:59:51.495Z,2.90
2022-08-03T03:02:21.307Z,3.00
2022-08-03T03:04:58.869Z,2.83
2022-08-03T03:07:51.256Z,3.13
2022-08-03T03:10:20.739Z,2.90
2022-08-03T03:12:49.614Z,3.07
2022-08-03T03:15:17.304Z,3.10
2022-08-03T03:17:47.505Z,2.90
2022-08-03T03:20:16.680Z,3.20
2022-08-03T03:23:00.163Z,2.60
2022-08-03T03:25:28.903Z,2.80
2022-08-03T03:27:56.766Z,2.97
2022-08-03T03:30:26.233Z,3.57
2022-08-03T03:32:55.582Z,3.47
2022-08-03T03:35:23.309Z,3.00
2022-08-03T03:37:51.004Z,3.00
2022-08-03T03:40:19.427Z,3.30
2022-08-03T03:42:47.382Z,2.83
2022-08-03T03:45:15.736Z,3.40
2022-08-03T03:47:43.602Z,3.10
2022-08-03T03:50:12.957Z,2.77
2022-08-03T03:52:40.672Z,3.97
2022-08-03T03:55:09.128Z,3.27
2022-08-03T03:57:36.788Z,2.80
2022-08-03T04:00:06.152Z,3.27
2022-08-03T04:02:34.041Z,3.40
2022-08-03T04:05:19.458Z,2.70
2022-08-03T04:08:14.641Z,3.47
2022-08-03T04:11:02.459Z,3.23
2022-08-03T04:13:37.780Z,3.50
2022-08-03T04:16:07.502Z,3.73
2022-08-03T04:18:37.150Z,3.23
2022-08-03T04:21:08.124Z,3.40
2022-08-03T04:23:41.658Z,3.10
2022-08-03T04:26:12.024Z,3.10
2022-08-03T04:28:42.262Z,3.50
2022-08-03T04:31:10.420Z,3.00
2022-08-03T04:33:40.460Z,3.17
2022-08-03T04:36:10.189Z,3.37
2022-08-03T04:38:45.370Z,3.37
2022-08-03T04:41:14.307Z,3.20
2022-08-03T04:43:42.516Z,3.37
2022-08-03T04:46:12.010Z,3.80
2022-08-03T04:48:43.537Z,3.13
2022-08-03T04:51:12.958Z,3.50
2022-08-03T04:53:42.105Z,3.23
2022-08-03T04:56:09.927Z,3.47
2022-08-03T04:58:37.625Z,2.67
2022-08-03T05:01:05.310Z,2.67
2022-08-03T05:03:32.968Z,3.77
2022-08-03T05:06:09.465Z,3.40
2022-08-03T05:08:45.260Z,3.37
2022-08-03T05:11:16.753Z,3.50
2022-08-03T05:13:44.905Z,3.40
2022-08-03T05:16:13.767Z,3.40
2022-08-03T05:18:42.084Z,3.20
2022-08-03T05:21:10.400Z,3.40
2022-08-03T05:23:38.543Z,3.70
2022-08-03T05:26:06.177Z,3.37
2022-08-03T05:28:35.176Z,3.70
2022-08-03T05:31:03.241Z,3.23
2022-08-03T05:33:30.993Z,4.47
2022-08-03T05:36:03.946Z,3.40
2022-08-03T05:38:34.657Z,3.30
2022-08-03T05:41:20.940Z,3.33
2022-08-03T05:43:53.612Z,3.33
2022-08-03T05:46:21.861Z,3.80
2022-08-03T05:48:49.531Z,4.27
2022-08-03T05:51:17.352Z,4.60
2022-08-03T05:53:45.629Z,4.80
2022-08-03T05:56:16.039Z,8.13
2022-08-03T05:58:45.866Z,4.40
2022-08-03T06:01:15.305Z,4.00
2022-08-03T06:03:43.159Z,4.20
2022-08-03T06:06:11.551Z,4.50
2022-08-03T06:08:39.774Z,3.90
2022-08-03T06:11:07.435Z,5.30
2022-08-03T06:13:35.431Z,4.17
2022-08-03T06:16:03.223Z,4.63
2022-08-03T06:18:32.352Z,3.13
2022-08-03T06:21:00.234Z,4.00
2022-08-03T06:23:52.915Z,3.50
2022-08-03T06:26:21.634Z,4.23
2022-08-03T06:28:52.169Z,3.70
2022-08-03T06:31:21.292Z,3.37
2022-08-03T06:34:34.016Z,4.23
2022-08-03T06:36:38.046Z,3.60
2022-08-03T06:39:06.324Z,4.10
2022-08-03T06:41:37.499Z,3.30
2022-08-03T06:44:12.723Z,3.50
2022-08-03T06:46:40.665Z,3.73
2022-08-03T06:49:09.836Z,3.70
2022-08-03T06:52:06.127Z,3.63
2022-08-03T06:54:25.345Z,2.97
2022-08-03T06:56:53.296Z,3.70
2022-08-03T07:00:08.543Z,3.73
2022-08-03T07:02:09.706Z,3.40
2022-08-03T07:04:38.831Z,3.20
2022-08-03T07:07:06.518Z,3.87
2022-08-03T07:09:34.770Z,3.20
2022-08-03T07:12:02.627Z,3.70
2022-08-03T07:14:30.282Z,3.10
2022-08-03T07:16:59.004Z,2.80
2022-08-03T07:19:26.841Z,3.00
2022-08-03T07:21:56.284Z,3.27
2022-08-03T07:24:30.083Z,2.27
2022-08-03T07:26:57.805Z,3.07
2022-08-03T07:29:25.903Z,3.10
2022-08-03T07:31:53.614Z,2.83
2022-08-03T07:34:21.352Z,2.70
2022-08-03T07:36:48.969Z,3.00
2022-08-03T07:39:18.281Z,2.80
2022-08-03T07:41:46.165Z,2.67
2022-08-03T07:44:13.914Z,3.53
2022-08-03T07:46:41.603Z,3.10
2022-08-03T07:49:09.735Z,3.10
2022-08-03T07:51:37.631Z,2.30
2022-08-03T07:54:05.693Z,2.33
2022-08-03T07:56:34.674Z,2.57
2022-08-03T07:59:02.930Z,2.53
2022-08-03T08:01:32.775Z,2.90
2022-08-03T08:04:00.638Z,2.50
2022-08-03T08:06:28.333Z,3.03
2022-08-03T08:08:59.493Z,3.47
2022-08-03T08:11:27.183Z,3.27
2022-08-03T08:13:56.400Z,3.10
2022-08-03T08:16:24.066Z,2.73
2022-08-03T08:18:51.783Z,2.67
2022-08-03T08:21:19.441Z,3.00
2022-08-03T08:23:57.037Z,3.00
2022-08-03T08:26:25.572Z,3.27
2022-08-03T08:28:53.441Z,3.20
2022-08-03T08:31:22.520Z,2.67
2022-08-03T08:34:05.666Z,2.70
2022-08-03T08:36:34.068Z,2.63
2022-08-03T08:39:02.093Z,2.40
2022-08-03T08:41:33.754Z,3.10
2022-08-03T08:44:01.760Z,2.30
2022-08-03T08:46:33.665Z,2.33
2022-08-03T08:49:04.866Z,2.40
2022-08-03T08:51:54.714Z,2.57
2022-08-03T08:54:26.906Z,2.47
2022-08-03T08:56:57.005Z,2.60
2022-08-03T08:59:26.002Z,3.00
2022-08-03T09:01:58.001Z,2.30
2022-08-03T09:04:25.867Z,2.27
2022-08-03T09:07:10.811Z,2.50
2022-08-03T09:10:11.469Z,2.30
2022-08-03T09:12:41.866Z,2.70
2022-08-03T09:15:22.308Z,2.30
2022-08-03T09:17:52.892Z,1.83
2022-08-03T09:20:23.501Z,2.43
2022-08-03T09:22:59.676Z,2.73
2022-08-03T09:25:32.531Z,2.20
2022-08-03T09:28:11.908Z,2.70
2022-08-03T09:30:41.859Z,2.63
2022-08-03T09:33:12.717Z,2.67
2022-08-03T09:35:53.494Z,2.40
2022-08-03T09:38:26.112Z,2.27
2022-08-03T09:40:59.552Z,2.80
2022-08-03T09:43:28.802Z,2.20
2022-08-03T09:46:03.903Z,2.40
2022-08-03T09:48:34.696Z,2.07
2022-08-03T09:51:13.086Z,1.90
2022-08-03T09:53:59.191Z,2.50
2022-08-03T09:56:42.440Z,2.90
2022-08-03T09:59:11.395Z,2.47
2022-08-03T10:01:41.651Z,2.67
2022-08-03T10:04:16.956Z,3.20
2022-08-03T10:06:45.771Z,1.97
2022-08-03T10:09:15.885Z,2.00
2022-08-03T10:11:46.946Z,2.20
2022-08-03T10:14:19.060Z,2.30
2022-08-03T10:16:48.156Z,2.00
2022-08-03T10:19:17.656Z,1.70
2022-08-03T10:21:50.812Z,2.40
2022-08-03T10:24:25.100Z,2.10
2022-08-03T10:26:54.599Z,2.83
2022-08-03T10:29:25.458Z,2.50
2022-08-03T10:31:58.402Z,2.47
2022-08-03T10:34:34.987Z,2.77
2022-08-03T10:37:08.939Z,3.10
2022-08-03T10:39:37.389Z,2.37
2022-08-03T10:42:14.688Z,3.17
2022-08-03T10:44:43.550Z,3.47
2022-08-03T10:47:12.059Z,2.23
2022-08-03T10:49:41.696Z,2.50
2022-08-03T10:52:26.935Z,3.00
2022-08-03T10:55:16.098Z,2.43
2022-08-03T10:57:58.455Z,2.50
2022-08-03T11:00:29.982Z,2.33
2022-08-03T11:03:11.409Z,2.10
2022-08-03T11:05:42.807Z,1.60
2022-08-03T11:08:28.886Z,1.80
2022-08-03T11:10:59.666Z,2.20
2022-08-03T11:13:31.673Z,2.50
2022-08-03T11:16:06.015Z,1.90
2022-08-03T11:18:35.001Z,2.20
2022-08-03T11:21:05.649Z,2.53
2022-08-03T11:24:04.660Z,1.90
2022-08-03T11:26:35.633Z,1.73
2022-08-03T11:29:30.311Z,2.33
2022-08-03T11:31:58.183Z,2.03
2022-08-03T11:34:26.620Z,2.30
2022-08-03T11:37:27.519Z,2.40
2022-08-03T11:39:57.769Z,2.27
2022-08-03T11:42:43.957Z,2.50
2022-08-03T11:45:12.648Z,2.17
2022-08-03T11:47:50.166Z,1.83
2022-08-03T11:50:20.137Z,1.80
2022-08-03T11:52:50.365Z,1.73
2022-08-03T11:55:20.467Z,1.70
2022-08-03T11:59:00.984Z,1.53
2022-08-03T12:00:37.228Z,1.70
2022-08-03T12:03:07.954Z,1.70
2022-08-03T12:05:38.166Z,1.57
2022-08-03T12:08:09.351Z,1.70
2022-08-03T12:10:38.018Z,1.80
2022-08-03T12:14:33.069Z,1.80
2022-08-03T12:15:59.086Z,1.90
2022-08-03T12:18:27.048Z,1.90
2022-08-03T12:21:05.904Z,2.03
2022-08-03T12:23:37.809Z,1.80
2022-08-03T12:26:08.064Z,1.73
2022-08-03T12:28:38.347Z,1.40
2022-08-03T12:31:09.289Z,1.80
2022-08-03T12:34:02.926Z,1.37
2022-08-03T12:36:32.154Z,1.40
2022-08-03T12:39:02.821Z,2.00
2022-08-03T12:41:34.105Z,1.70
2022-08-03T12:44:03.268Z,1.90
2022-08-03T12:46:33.191Z,1.63
2022-08-03T12:49:03.524Z,1.40
2022-08-03T12:51:33.058Z,1.50
2022-08-03T12:54:02.598Z,2.10
2022-08-03T12:56:30.429Z,1.67
2022-08-03T12:58:58.217Z,1.50
2022-08-03T13:01:27.853Z,1.73
2022-08-03T13:03:55.724Z,2.07
2022-08-03T13:06:25.218Z,1.90
2022-08-03T13:09:05.998Z,1.57
2022-08-03T13:12:00.979Z,1.70
2022-08-03T13:14:23.679Z,1.70
2022-08-03T13:16:51.650Z,1.70
2022-08-03T13:19:19.370Z,1.50
2022-08-03T13:22:03.344Z,1.70
2022-08-03T13:24:34.439Z,1.30
2022-08-03T13:27:21.995Z,1.53
2022-08-03T13:29:50.621Z,1.57
2022-08-03T13:32:18.425Z,1.53
2022-08-03T13:34:46.257Z,1.60
2022-08-03T13:37:14.450Z,1.33
2022-08-03T13:39:57.630Z,1.53
2022-08-03T13:42:28.510Z,1.87
2022-08-03T13:44:56.287Z,1.70
2022-08-03T13:47:24.077Z,2.03
2022-08-03T13:49:59.610Z,1.90
2022-08-03T13:52:31.003Z,1.50
2022-08-03T13:55:00.788Z,1.97
2022-08-03T13:58:02.819Z,1.87
2022-08-03T14:00:26.285Z,1.90
2022-08-03T14:03:12.520Z,1.80
2022-08-03T14:05:42.013Z,1.60
2022-08-03T14:08:10.087Z,1.77
2022-08-03T14:10:41.315Z,1.40
2022-08-03T14:13:09.943Z,1.40
2022-08-03T14:15:38.642Z,1.50
2022-08-03T14:18:15.633Z,1.20
2022-08-03T14:20:56.798Z,2.13
2022-08-03T14:23:25.856Z,2.20
2022-08-03T14:25:54.832Z,1.50
2022-08-03T14:28:23.724Z,1.53
2022-08-03T14:30:52.137Z,1.70
2022-08-03T14:33:20.067Z,1.50
2022-08-03T14:35:47.726Z,1.87
2022-08-03T14:38:15.509Z,1.50
2022-08-03T14:40:43.353Z,1.33
2022-08-03T14:43:12.421Z,1.90
2022-08-03T14:45:40.443Z,1.87
2022-08-03T14:50:33.696Z,1.80
2022-08-03T14:50:56.745Z,1.90
2022-08-03T14:53:24.716Z,1.70
2022-08-03T14:55:53.305Z,2.37
2022-08-03T14:58:23.678Z,2.00
2022-08-03T15:00:53.514Z,1.30
2022-08-03T15:03:24.650Z,1.60
2022-08-03T15:05:53.510Z,1.80
2022-08-03T15:08:21.218Z,1.83
2022-08-03T15:10:49.292Z,2.03
2022-08-03T15:13:17.326Z,1.83
2022-08-03T15:15:46.823Z,1.80
2022-08-03T15:18:14.540Z,1.60
2022-08-03T15:20:45.468Z,1.40
2022-08-03T15:23:14.338Z,1.70
2022-08-03T15:26:28.153Z,2.27
2022-08-03T15:28:30.064Z,1.93
2022-08-03T15:30:59.252Z,2.17
2022-08-03T15:33:26.893Z,1.87
2022-08-03T15:35:54.876Z,1.93
2022-08-03T15:38:26.246Z,2.03
2022-08-03T15:40:55.303Z,2.50
2022-08-03T15:43:23.552Z,2.30
2022-08-03T15:46:12.886Z,1.60
2022-08-03T15:48:40.651Z,1.40
2022-08-03T15:51:09.076Z,1.83
2022-08-03T15:53:37.595Z,1.87
2022-08-03T15:56:11.369Z,1.50
2022-08-03T15:59:10.362Z,1.70
2022-08-03T16:01:30.815Z,1.50
2022-08-03T16:03:59.841Z,1.40
2022-08-03T16:06:34.789Z,1.73
2022-08-03T16:09:03.812Z,1.33
2022-08-03T16:11:31.600Z,1.50
2022-08-03T16:14:12.837Z,1.63
2022-08-03T16:16:46.892Z,1.60
2022-08-03T16:19:16.242Z,2.00
2022-08-03T16:21:48.188Z,1.90
2022-08-03T16:24:19.830Z,2.50
2022-08-03T16:26:55.780Z,1.80
2022-08-03T16:29:24.165Z,1.50
2022-08-03T16:31:52.513Z,1.77
2022-08-03T16:34:21.888Z,1.80
2022-08-03T16:36:49.677Z,1.50
2022-08-03T16:39:17.407Z,1.43
2022-08-03T16:41:54.393Z,1.60
2022-08-03T16:44:30.645Z,1.90
2022-08-03T16:46:58.632Z,1.60
2022-08-03T16:49:53.838Z,1.70
2022-08-03T16:52:16.678Z,1.67
2022-08-03T16:54:52.868Z,1.60
2022-08-03T16:57:58.286Z,1.17
2022-08-03T17:00:11.382Z,1.27
2022-08-03T17:02:43.072Z,1.73
2022-08-03T17:05:17.644Z,1.67
2022-08-03T17:07:50.764Z,1.17
2022-08-03T17:10:27.274Z,1.20
2022-08-03T17:12:55.157Z,1.70
2022-08-03T17:15:38.274Z,1.70
2022-08-03T17:18:18.189Z,1.60
2022-08-03T17:20:52.576Z,1.47
2022-08-03T17:23:36.000Z,1.20
2022-08-03T17:26:10.607Z,1.50
2022-08-03T17:28:57.192Z,1.37
2022-08-03T17:31:31.546Z,1.43
2022-08-03T17:34:01.780Z,1.80
2022-08-03T17:37:02.573Z,1.70
2022-08-03T17:39:35.827Z,1.33
2022-08-03T17:42:30.657Z,1.60
2022-08-03T17:44:57.973Z,1.57
2022-08-03T17:47:29.233Z,1.50
2022-08-03T17:50:25.788Z,1.50
2022-08-03T17:53:07.009Z,1.70
2022-08-03T17:55:57.482Z,1.30
2022-08-03T17:58:39.709Z,1.60
2022-08-03T18:02:02.013Z,1.40
2022-08-03T18:04:29.898Z,2.50
2022-08-03T18:07:11.537Z,1.27
2022-08-03T18:10:03.668Z,1.80
2022-08-03T18:12:51.570Z,2.13
2022-08-03T18:15:25.369Z,1.73
2022-08-03T18:17:55.552Z,1.90
2022-08-03T18:20:34.156Z,1.20
2022-08-03T18:23:04.491Z,1.73
2022-08-03T18:25:42.334Z,1.40
2022-08-03T18:28:15.265Z,1.57
2022-08-03T18:30:53.996Z,1.30
2022-08-03T18:34:19.337Z,1.17
2022-08-03T18:36:17.424Z,1.63
2022-08-03T18:38:46.675Z,1.60
2022-08-03T18:41:22.097Z,1.90
2022-08-03T18:44:08.087Z,1.70
2022-08-03T18:46:48.318Z,1.40
2022-08-03T18:49:29.113Z,1.33
2022-08-03T18:52:03.506Z,2.43
2022-08-03T18:54:45.701Z,2.17
2022-08-03T18:57:38.387Z,1.80
2022-08-03T19:00:14.191Z,1.57
2022-08-03T19:02:49.215Z,1.53
2022-08-03T19:05:23.801Z,2.10
2022-08-03T19:08:20.837Z,1.70
2022-08-03T19:11:00.759Z,1.97
2022-08-03T19:13:40.329Z,1.80
2022-08-03T19:16:24.004Z,1.50
2022-08-03T19:18:57.114Z,1.60
2022-08-03T19:21:26.078Z,1.60
2022-08-03T19:23:55.488Z,2.23
2022-08-03T19:26:31.114Z,2.43
2022-08-03T19:29:00.927Z,1.70
2022-08-03T19:31:30.968Z,1.70
2022-08-03T19:34:00.249Z,1.80
2022-08-03T19:36:29.099Z,1.47
2022-08-03T19:38:58.067Z,1.80
2022-08-03T19:41:41.848Z,1.50
2022-08-03T19:44:27.179Z,2.03
2022-08-03T19:46:58.793Z,1.87
2022-08-03T19:49:57.104Z,1.40
2022-08-03T19:52:24.519Z,2.03
2022-08-03T19:55:01.581Z,1.80
2022-08-03T19:57:33.595Z,1.50
2022-08-03T20:00:03.401Z,2.00
2022-08-03T20:02:33.190Z,1.87
2022-08-03T20:05:02.322Z,1.70
2022-08-03T20:07:32.714Z,1.80
2022-08-03T20:10:02.056Z,2.20
2022-08-03T20:12:34.373Z,2.57
2022-08-03T20:15:10.524Z,1.97
2022-08-03T20:17:54.586Z,2.20
2022-08-03T20:20:26.851Z,3.13
2022-08-03T20:22:57.938Z,2.00
2022-08-03T20:25:38.174Z,2.13
2022-08-03T20:28:14.536Z,2.40
2022-08-03T20:30:47.142Z,2.43
2022-08-03T20:33:18.448Z,2.00
2022-08-03T20:35:48.948Z,2.17
2022-08-03T20:38:17.358Z,2.33
2022-08-03T20:40:46.421Z,2.90
2022-08-03T20:43:14.229Z,1.80
2022-08-03T20:45:59.851Z,2.17
2022-08-03T20:48:33.143Z,2.57
2022-08-03T20:51:01.311Z,2.43
2022-08-03T20:53:57.271Z,2.43
2022-08-03T20:56:20.324Z,2.80
2022-08-03T21:01:37.448Z,3.10
2022-08-03T21:04:09.238Z,2.60
2022-08-03T21:06:45.616Z,2.60
2022-08-03T21:09:39.848Z,2.70
2022-08-03T21:12:15.441Z,2.67
2022-08-03T21:13:13.735Z,2.67
2022-08-03T21:14:53.473Z,2.70
2022-08-03T21:17:39.869Z,2.80
2022-08-03T21:20:12.622Z,2.63
2022-08-03T21:22:44.943Z,2.67
2022-08-03T21:25:16.253Z,3.23
2022-08-03T21:27:44.542Z,2.20
2022-08-03T21:30:13.144Z,2.50
2022-08-03T21:32:45.426Z,2.87
2022-08-03T21:35:16.532Z,2.70
2022-08-03T21:37:45.565Z,2.50
2022-08-03T21:40:16.650Z,2.40
2022-08-03T21:42:46.135Z,2.70
2022-08-03T21:45:17.461Z,2.40
2022-08-03T21:47:46.820Z,2.37
2022-08-03T21:50:16.809Z,2.50
2022-08-03T21:52:47.802Z,2.27
2022-08-03T21:55:18.317Z,3.00
2022-08-03T21:57:53.692Z,2.50
2022-08-03T22:00:23.995Z,2.73
2022-08-03T22:02:55.596Z,2.00
2022-08-03T22:05:42.450Z,2.87
2022-08-03T22:08:12.059Z,2.60
2022-08-03T22:10:40.536Z,2.03
2022-08-03T22:13:08.526Z,2.77
2022-08-03T22:15:36.337Z,2.07
2022-08-03T22:18:05.214Z,2.40
2022-08-03T22:20:34.548Z,2.50
2022-08-03T22:23:04.763Z,2.17
2022-08-03T22:25:34.358Z,2.40
2022-08-03T22:28:05.187Z,2.30
2022-08-03T22:30:33.288Z,2.10
2022-08-03T22:33:02.950Z,2.10
2022-08-03T22:35:44.422Z,2.73
2022-08-03T22:38:16.842Z,2.10
2022-08-03T22:40:45.007Z,2.10
2022-08-03T22:43:12.798Z,3.20
2022-08-03T22:46:07.581Z,2.93
2022-08-03T22:48:28.820Z,2.60
2022-08-03T22:51:01.385Z,2.40
2022-08-03T22:53:29.110Z,2.60
2022-08-03T22:55:57.558Z,2.57
2022-08-03T22:58:25.435Z,2.57
2022-08-03T23:00:59.137Z,2.27
2022-08-03T23:04:00.508Z,2.50
2022-08-03T23:06:23.571Z,2.23
2022-08-03T23:08:51.476Z,2.10
2022-08-03T23:11:20.229Z,2.30
2022-08-03T23:13:53.091Z,2.17
2022-08-03T23:16:29.135Z,2.60
2022-08-03T23:18:58.892Z,2.40
2022-08-03T23:22:00.104Z,2.57
2022-08-03T23:24:24.589Z,2.20
2022-08-03T23:26:58.045Z,2.00
2022-08-03T23:29:27.148Z,2.00
2022-08-03T23:31:54.917Z,2.50
2022-08-03T23:34:42.066Z,3.03
2022-08-03T23:37:14.880Z,2.10
2022-08-03T23:39:45.721Z,2.90
2022-08-03T23:42:14.491Z,2.50
2022-08-03T23:44:43.154Z,2.00
2022-08-03T23:47:10.895Z,2.10
2022-08-03T23:49:38.565Z,2.47
2022-08-03T23:52:14.926Z,2.47
2022-08-03T23:54:53.237Z,3.27
2022-08-03T23:57:30.780Z,2.40
